Airfield :
LOGIN :

Register | Disclaimer

   EN    FR    IT 

 










Legend :    VFR   Marginal VFR   IFR   Intensive IFR   Very Intensive IFR
Visi :
Ceiling :
>= 8 km
>= 3000ft
5 to 8 km
1000 to 3000 ft
1500m to 5 km
500 to 1000 ft
800 to 1500m
200 to 500 ft
< 800m
< 200 ft
Symbols :   Thunderstorms  Fog  Heavy snow  Heavy precipitations  Wind > 20 kt
SIGMETs :     Misc.  Thunderstorms  Icing  Turbulence  Mountain Waves  Volcanic Ashes







- Airport Elevation : -15 ft
- IATA code : RTM


EHRD - Rotterdam Zestienhoven

CURRENT METAR :
  • 250825Z AUTO 30009KT 260V340 9999 -RADZ FEW007 SCT015 BKN018 10/08 Q1010 NOSIG

EXPIRED METARs :
  • 250755Z AUTO 28010KT 240V320 9999 SCT011 BKN014 OVC025 10/08 Q1010 TEMPO SCT015
  • 250725Z AUTO 29010KT 250V330 9999 FEW010 SCT022 BKN030 10/08 Q1010 NOSIG
  • 250655Z AUTO 28010KT 240V320 9999 FEW012 SCT024 OVC038 10/08 Q1009 NOSIG
  • 250625Z AUTO 29012KT 250V330 9999 FEW013 BKN032 OVC036 10/08 Q1009 TEMPO BKN013
  • 250555Z AUTO 28012KT 230V320 9999 SCT011 BKN013 OVC016 10/08 Q1009 TEMPO SCT013

TAF TAF EHRD
Valid from the 25 at 06:00 until the 26 at 12:00 UTC


250438Z 2506/2612 28015G25KT 9999 FEW008 BKN015
BECMG 2506/2509 SCT020
PROB30
TEMPO 2506/2508 BKN007
BECMG 2514/2517 25015KT
PROB40
TEMPO 2516/2602 6000 SHRA SCT020CB
BECMG 2607/2610 26018G28KT
No reported NOTAMs for that airfield.



MET'MAP, your aeronautical weather chart ! - Copyright ORBIFLY December 2007 - Disclaimer

ORBIFLY MET'MAP TEAM :

Programming & Development : Alexandra Zaïnal
Concept & Development : Baudouin d'Aumeries
Co-Development & Prog : Marc-Olivier Méhu
Technical & hardware support : Manuel Goepfert

Contact : metmap@orbifly.com




SOURCES & CREDITS :

   NOAA